Collegeville, Indiana
Current Conditions -  °F | °C
As of 7:15 AM on Friday 31 Oct 2014 (Local Time) from KRZL Reporting Station
Moderate Rain Moderate Rain  
Wind Chill: 33°   Ceiling: 5500
Heat Index: 39°   Visibility: 10mi
Dew Point: 37°   Wind: 9mph
Humidity: 93%   Direction: 320°NW
Pressure: 30.03"   Gusts: NA
Location:  40.9571°N, 87.0941°W
Report Text: KRZL 311215Z AUTO 32008KT 10SM RA SCT046 OVC055 04/03 A3003 RMK AO2
Loading
Personal Weather Stations






























Interactive Weather Map
Tropical Storm Tracking
New forecast layout! Learn more

10-Day Weather Forecast

Advertisements
Track Severe Weather on mobile